createdAt,value
2018-09-20T00:02:15.074Z,20.30
2018-09-20T00:04:43.823Z,20.30
2018-09-20T00:07:12.572Z,20.20
2018-09-20T00:09:41.352Z,20.10
2018-09-20T00:12:10.094Z,20.20
2018-09-20T00:14:38.895Z,20.20
2018-09-20T00:17:07.721Z,20.20
2018-09-20T00:19:36.620Z,20.20
2018-09-20T00:22:05.394Z,20.10
2018-09-20T00:24:34.181Z,20.00
2018-09-20T00:27:02.938Z,20.00
2018-09-20T00:29:31.842Z,20.10
2018-09-20T00:32:00.591Z,20.00
2018-09-20T00:34:29.405Z,20.00
2018-09-20T00:36:58.154Z,19.90
2018-09-20T00:39:26.860Z,20.00
2018-09-20T00:41:55.638Z,20.00
2018-09-20T00:44:24.490Z,20.00
2018-09-20T00:46:53.223Z,20.00
2018-09-20T00:49:21.968Z,19.90
2018-09-20T00:51:50.701Z,19.80
2018-09-20T00:54:19.451Z,19.90
2018-09-20T00:56:48.227Z,19.80
2018-09-20T00:59:16.989Z,19.70
2018-09-20T01:01:45.736Z,19.70
2018-09-20T01:04:14.573Z,19.60
2018-09-20T01:06:43.325Z,19.60
2018-09-20T01:09:12.648Z,19.50
2018-09-20T01:11:45.836Z,19.60
2018-09-20T01:14:18.857Z,19.40
2018-09-20T01:16:55.182Z,19.40
2018-09-20T01:19:28.240Z,19.00
2018-09-20T01:22:01.175Z,18.90
2018-09-20T01:24:34.954Z,19.00
2018-09-20T01:27:10.068Z,19.00
2018-09-20T01:29:44.545Z,19.20
2018-09-20T01:32:19.331Z,19.20
2018-09-20T01:34:52.594Z,19.20
2018-09-20T01:37:27.003Z,19.20
2018-09-20T01:40:02.817Z,19.20
2018-09-20T01:42:37.686Z,19.20
2018-09-20T01:45:12.508Z,19.30
2018-09-20T01:47:46.105Z,19.10
2018-09-20T01:50:20.048Z,19.20
2018-09-20T01:52:55.496Z,19.10
2018-09-20T01:55:30.915Z,19.00
2018-09-20T01:58:04.656Z,19.00
2018-09-20T02:00:39.892Z,19.00
2018-09-20T02:03:13.083Z,19.10
2018-09-20T02:05:47.796Z,19.00
2018-09-20T02:08:21.128Z,19.00
2018-09-20T02:10:54.383Z,19.00
2018-09-20T02:13:28.537Z,19.00
2018-09-20T02:16:07.439Z,18.90
2018-09-20T02:18:41.232Z,18.90
2018-09-20T02:21:15.180Z,19.00
2018-09-20T02:23:43.965Z,19.00
2018-09-20T02:26:12.673Z,18.90
2018-09-20T02:28:50.343Z,18.80
2018-09-20T02:31:19.105Z,18.90
2018-09-20T02:33:47.919Z,19.00
2018-09-20T02:36:16.655Z,19.00
2018-09-20T02:38:49.508Z,19.00
2018-09-20T02:41:18.359Z,19.00
2018-09-20T02:43:47.159Z,18.90
2018-09-20T02:46:15.869Z,18.80
2018-09-20T02:48:44.629Z,18.80
2018-09-20T02:51:13.391Z,18.70
2018-09-20T02:53:42.122Z,18.60
2018-09-20T02:56:10.950Z,18.50
2018-09-20T02:58:39.736Z,18.40
2018-09-20T03:01:08.537Z,18.50
2018-09-20T03:03:37.359Z,18.40
2018-09-20T03:06:06.176Z,18.40
2018-09-20T03:08:35.089Z,18.40
2018-09-20T03:11:04.035Z,18.50
2018-09-20T03:13:32.897Z,18.50
2018-09-20T03:16:05.029Z,18.50
2018-09-20T03:18:37.954Z,18.60
2018-09-20T03:21:12.001Z,18.50
2018-09-20T03:23:44.892Z,18.40
2018-09-20T03:26:17.550Z,18.40
2018-09-20T03:28:50.778Z,18.30
2018-09-20T03:31:24.058Z,18.30
2018-09-20T03:33:59.074Z,18.20
2018-09-20T03:36:34.914Z,18.30
2018-09-20T03:39:13.155Z,18.30
2018-09-20T03:41:46.318Z,18.30
2018-09-20T03:44:30.973Z,18.30
2018-09-20T03:47:08.730Z,18.20
2018-09-20T03:49:43.081Z,18.10
2018-09-20T03:52:17.636Z,18.20
2018-09-20T03:54:51.945Z,18.20
2018-09-20T03:57:26.041Z,18.20
2018-09-20T04:00:00.455Z,18.10
2018-09-20T04:02:33.757Z,18.20
2018-09-20T04:05:09.546Z,18.20
2018-09-20T04:07:44.054Z,18.10
2018-09-20T04:10:18.718Z,18.10
2018-09-20T04:12:53.187Z,18.10
2018-09-20T04:15:28.693Z,18.00
2018-09-20T04:18:06.875Z,18.10
2018-09-20T04:20:41.195Z,18.10
2018-09-20T04:23:20.458Z,18.00
2018-09-20T04:25:53.829Z,18.00
2018-09-20T04:28:28.388Z,17.90
2018-09-20T04:31:02.616Z,17.90
2018-09-20T04:33:36.420Z,17.80
2018-09-20T04:36:10.796Z,17.90
2018-09-20T04:38:44.207Z,17.90
2018-09-20T04:41:18.935Z,17.80
2018-09-20T04:43:51.973Z,17.80
2018-09-20T04:46:24.760Z,17.90
2018-09-20T04:48:58.189Z,17.80
2018-09-20T04:51:29.339Z,17.80
2018-09-20T04:54:01.248Z,17.90
2018-09-20T04:56:32.204Z,17.90
2018-09-20T04:59:03.066Z,17.80
2018-09-20T05:01:35.851Z,17.80
2018-09-20T05:04:09.647Z,17.80
2018-09-20T05:06:43.238Z,17.80
2018-09-20T05:09:17.956Z,17.80
2018-09-20T05:11:51.164Z,17.90
2018-09-20T05:14:25.450Z,17.80
2018-09-20T05:16:58.112Z,17.70
2018-09-20T05:19:30.922Z,17.70
2018-09-20T05:22:04.969Z,17.70
2018-09-20T05:24:38.342Z,17.80
2018-09-20T05:27:11.671Z,17.80
2018-09-20T05:29:44.628Z,17.70
2018-09-20T05:32:17.647Z,17.70
2018-09-20T05:34:51.734Z,17.70
2018-09-20T05:37:25.367Z,17.80
2018-09-20T05:39:57.865Z,17.90
2018-09-20T05:42:30.489Z,18.00
2018-09-20T05:45:02.970Z,17.90
2018-09-20T05:47:35.574Z,17.90
2018-09-20T05:50:06.616Z,18.10
2018-09-20T05:52:37.768Z,18.20
2018-09-20T05:55:10.217Z,18.20
2018-09-20T05:57:43.091Z,18.30
2018-09-20T06:00:16.040Z,18.30
2018-09-20T06:02:49.383Z,18.30
2018-09-20T06:05:22.358Z,18.40
2018-09-20T06:07:55.942Z,18.50
2018-09-20T06:10:29.654Z,18.60
2018-09-20T06:13:03.126Z,18.70
2018-09-20T06:15:33.987Z,18.70
2018-09-20T06:18:04.591Z,18.80
2018-09-20T06:20:34.788Z,18.90
2018-09-20T06:23:07.859Z,19.00
2018-09-20T06:25:40.176Z,19.10
2018-09-20T06:28:13.689Z,19.20
2018-09-20T06:30:46.240Z,19.20
2018-09-20T06:33:20.434Z,19.30
2018-09-20T06:35:54.475Z,19.30
2018-09-20T06:38:27.280Z,19.50
2018-09-20T06:40:57.313Z,19.50
2018-09-20T06:43:28.585Z,19.50
2018-09-20T06:46:00.057Z,19.50
2018-09-20T06:48:31.319Z,19.70
2018-09-20T06:51:02.561Z,19.80
2018-09-20T06:53:34.022Z,20.00
2018-09-20T06:56:03.957Z,20.10
2018-09-20T06:58:33.035Z,20.10
2018-09-20T07:01:02.050Z,20.30
2018-09-20T07:03:32.060Z,20.40
2018-09-20T07:06:02.496Z,20.50
2018-09-20T07:08:37.172Z,20.60
2018-09-20T07:11:10.769Z,20.60
2018-09-20T07:13:41.264Z,20.80
2018-09-20T07:16:12.117Z,20.80
2018-09-20T07:18:42.631Z,20.90
2018-09-20T07:21:13.568Z,21.00
2018-09-20T07:23:43.739Z,21.10
2018-09-20T07:26:13.656Z,21.10
2018-09-20T07:28:43.581Z,21.30
2018-09-20T07:31:13.831Z,21.40
2018-09-20T07:33:43.717Z,21.50
2018-09-20T07:36:13.527Z,21.60
2018-09-20T07:38:43.321Z,21.60
2018-09-20T07:41:13.059Z,21.80
2018-09-20T07:43:42.686Z,21.90
2018-09-20T07:46:12.529Z,22.10
2018-09-20T07:48:42.357Z,22.30
2018-09-20T07:52:11.837Z,22.60
2018-09-20T07:54:42.308Z,22.90
2018-09-20T07:57:12.150Z,23.00
2018-09-20T07:59:45.060Z,23.20
2018-09-20T08:02:17.539Z,23.40
2018-09-20T08:04:47.151Z,23.60
2018-09-20T08:07:17.925Z,23.70
2018-09-20T08:09:47.468Z,23.90
2018-09-20T08:12:17.547Z,24.20
2018-09-20T08:14:47.469Z,24.40
2018-09-20T08:17:17.367Z,24.50
2018-09-20T08:19:46.558Z,24.50
2018-09-20T08:22:16.192Z,25.10
2018-09-20T08:24:45.403Z,26.10
2018-09-20T08:27:15.696Z,27.10
2018-09-20T08:29:45.273Z,28.10
2018-09-20T08:32:15.065Z,29.40
2018-09-20T08:34:44.730Z,30.50
2018-09-20T08:37:14.230Z,31.30
2018-09-20T08:39:43.385Z,31.30
2018-09-20T08:42:12.708Z,31.60
2018-09-20T08:44:42.304Z,32.10
2018-09-20T08:47:11.306Z,33.00
2018-09-20T08:49:41.302Z,33.80
2018-09-20T08:52:11.365Z,34.50
2018-09-20T08:54:41.516Z,35.60
2018-09-20T08:57:11.009Z,36.10
2018-09-20T08:59:41.275Z,36.20
2018-09-20T09:02:11.290Z,36.80
2018-09-20T09:04:40.418Z,37.50
2018-09-20T09:07:09.688Z,37.70
2018-09-20T09:09:39.041Z,38.40
2018-09-20T09:12:15.051Z,38.10
2018-09-20T09:14:44.022Z,37.70
2018-09-20T09:17:25.795Z,37.60
2018-09-20T09:19:55.347Z,39.10
2018-09-20T09:22:24.162Z,40.20
2018-09-20T09:24:53.057Z,40.00
2018-09-20T09:27:22.600Z,40.50
2018-09-20T09:29:51.796Z,39.60
2018-09-20T09:32:20.648Z,40.40
2018-09-20T09:34:49.722Z,41.50
2018-09-20T09:37:19.176Z,42.30
2018-09-20T09:39:48.112Z,43.20
2018-09-20T09:42:17.184Z,44.60
2018-09-20T09:44:46.854Z,44.90
2018-09-20T09:47:15.606Z,45.70
2018-09-20T09:49:44.407Z,45.60
2018-09-20T09:52:14.088Z,46.60
2018-09-20T09:54:43.143Z,47.70
2018-09-20T09:57:12.629Z,48.20
2018-09-20T09:59:45.135Z,47.40
2018-09-20T10:02:16.257Z,47.50
2018-09-20T10:04:50.761Z,46.80
2018-09-20T10:07:27.956Z,47.30
2018-09-20T10:10:01.251Z,45.60
2018-09-20T10:12:38.738Z,46.30
2018-09-20T10:15:14.420Z,46.90
2018-09-20T10:17:48.205Z,46.10
2018-09-20T10:20:22.165Z,47.00
2018-09-20T10:22:56.343Z,48.10
2018-09-20T10:25:30.771Z,48.70
2018-09-20T10:28:02.223Z,49.20
2018-09-20T10:30:34.078Z,49.50
2018-09-20T10:33:06.022Z,49.80
2018-09-20T10:35:38.149Z,50.80
2018-09-20T10:38:12.251Z,51.50
2018-09-20T10:40:46.831Z,52.50
2018-09-20T10:43:18.871Z,51.60
2018-09-20T10:45:52.825Z,50.70
2018-09-20T10:48:26.348Z,51.70
2018-09-20T10:50:57.600Z,52.40
2018-09-20T10:53:29.482Z,52.80
2018-09-20T10:55:59.712Z,52.30
2018-09-20T10:58:30.620Z,51.30
2018-09-20T11:01:00.571Z,51.70
2018-09-20T11:03:32.816Z,53.10
2018-09-20T11:06:04.562Z,54.20
2018-09-20T11:08:36.062Z,54.30
2018-09-20T11:11:07.257Z,54.20
2018-09-20T11:13:39.870Z,54.10
2018-09-20T11:16:12.073Z,53.30
2018-09-20T11:18:44.525Z,54.60
2018-09-20T11:21:16.027Z,54.20
2018-09-20T11:23:46.308Z,54.20
2018-09-20T11:26:17.070Z,54.50
2018-09-20T11:28:48.186Z,53.80
2018-09-20T11:31:23.390Z,53.40
2018-09-20T11:33:57.054Z,53.70
2018-09-20T11:36:27.924Z,52.50
2018-09-20T11:39:00.415Z,51.50
2018-09-20T11:41:32.203Z,48.50
2018-09-20T11:44:04.278Z,45.10
2018-09-20T11:46:34.300Z,42.20
2018-09-20T11:49:05.648Z,40.90
2018-09-20T11:51:36.080Z,38.60
2018-09-20T11:54:06.512Z,37.50
2018-09-20T11:56:38.221Z,36.90
2018-09-20T11:59:08.775Z,35.80
2018-09-20T12:01:40.449Z,35.50
2018-09-20T12:04:11.349Z,34.80
2018-09-20T12:06:42.030Z,33.10
2018-09-20T12:09:14.251Z,33.50
2018-09-20T12:11:44.754Z,33.10
2018-09-20T12:14:16.235Z,33.00
2018-09-20T12:16:47.310Z,33.20
2018-09-20T12:19:18.061Z,32.90
2018-09-20T12:21:49.013Z,32.90
2018-09-20T12:24:20.755Z,32.60
2018-09-20T12:26:52.855Z,32.70
2018-09-20T12:29:23.762Z,32.90
2018-09-20T12:31:55.330Z,32.70
2018-09-20T12:34:26.745Z,32.60
2018-09-20T12:37:02.197Z,32.80
2018-09-20T12:39:32.861Z,32.60
2018-09-20T12:42:04.093Z,32.30
2018-09-20T12:44:36.511Z,31.90
2018-09-20T12:47:06.845Z,31.50
2018-09-20T12:49:37.596Z,31.40
2018-09-20T12:52:09.084Z,31.30
2018-09-20T12:54:39.674Z,31.30
2018-09-20T12:57:10.491Z,31.40
2018-09-20T12:59:41.910Z,31.50
2018-09-20T13:02:16.386Z,31.70
2018-09-20T13:04:53.061Z,31.70
2018-09-20T13:07:34.530Z,31.70
2018-09-20T13:10:06.323Z,31.80
2018-09-20T13:12:38.436Z,31.70
2018-09-20T13:15:09.257Z,31.30
2018-09-20T13:17:40.168Z,31.30
2018-09-20T13:20:24.413Z,31.00
2018-09-20T13:22:55.783Z,31.50
2018-09-20T13:25:27.016Z,31.50
2018-09-20T13:27:57.784Z,31.40
2018-09-20T13:30:28.984Z,31.60
2018-09-20T13:32:59.748Z,32.30
2018-09-20T13:35:30.726Z,32.80
2018-09-20T13:38:01.382Z,33.00
2018-09-20T13:40:35.017Z,32.70
2018-09-20T13:43:10.759Z,32.30
2018-09-20T13:45:41.666Z,32.10
2018-09-20T13:48:14.079Z,31.90
2018-09-20T13:50:46.238Z,31.50
2018-09-20T13:53:17.637Z,31.50
2018-09-20T13:55:48.208Z,31.40
2018-09-20T13:58:18.866Z,31.40
2018-09-20T14:00:57.224Z,31.40
2018-09-20T14:03:27.490Z,31.30
2018-09-20T14:05:59.222Z,31.40
2018-09-20T14:08:30.972Z,31.10
2018-09-20T14:11:00.400Z,30.80
2018-09-20T14:13:29.309Z,30.90
2018-09-20T14:15:59.391Z,31.10
2018-09-20T14:18:29.164Z,31.40
2018-09-20T14:20:58.090Z,31.40
2018-09-20T14:23:27.860Z,31.20
2018-09-20T14:25:56.727Z,31.00
2018-09-20T14:28:25.586Z,30.80
2018-09-20T14:30:54.454Z,30.70
2018-09-20T14:33:33.480Z,30.80
2018-09-20T14:36:02.385Z,30.90
2018-09-20T14:38:31.174Z,30.90
2018-09-20T14:41:00.010Z,30.80
2018-09-20T14:43:32.946Z,30.50
2018-09-20T14:46:04.492Z,30.30
2018-09-20T14:48:33.855Z,30.30
2018-09-20T14:51:05.076Z,30.30
2018-09-20T14:53:33.970Z,30.30
2018-09-20T14:56:02.990Z,30.50
2018-09-20T14:58:34.626Z,30.50
2018-09-20T15:01:05.940Z,30.70
2018-09-20T15:03:34.874Z,30.80
2018-09-20T15:06:04.069Z,31.10
2018-09-20T15:08:33.621Z,31.20
2018-09-20T15:11:02.524Z,31.10
2018-09-20T15:13:31.291Z,31.00
2018-09-20T15:16:00.022Z,31.00
2018-09-20T15:18:28.876Z,30.90
2018-09-20T15:21:00.590Z,30.80
2018-09-20T15:23:29.306Z,30.80
2018-09-20T15:25:58.130Z,30.80
2018-09-20T15:28:26.998Z,30.70
2018-09-20T15:30:55.748Z,30.60
2018-09-20T15:33:24.658Z,30.60
2018-09-20T15:35:53.507Z,30.60
2018-09-20T15:38:22.490Z,30.60
2018-09-20T15:40:51.276Z,30.70
2018-09-20T15:43:20.105Z,30.80
2018-09-20T15:45:48.869Z,30.70
2018-09-20T15:48:17.625Z,30.80
2018-09-20T15:50:46.510Z,30.80
2018-09-20T15:53:15.406Z,31.00
2018-09-20T15:55:44.163Z,31.60
2018-09-20T15:58:12.903Z,32.40
2018-09-20T16:00:41.666Z,33.30
2018-09-20T16:03:10.389Z,34.00
2018-09-20T16:05:39.121Z,34.00
2018-09-20T16:08:07.898Z,33.40
2018-09-20T16:10:36.656Z,32.70
2018-09-20T16:13:05.456Z,32.30
2018-09-20T16:15:34.189Z,31.60
2018-09-20T16:18:02.900Z,31.20
2018-09-20T16:20:31.650Z,31.00
2018-09-20T16:23:00.365Z,31.20
2018-09-20T16:25:29.209Z,31.10
2018-09-20T16:28:04.198Z,30.50
2018-09-20T16:30:45.603Z,30.30
2018-09-20T16:33:28.635Z,30.00
2018-09-20T16:36:08.606Z,29.90
2018-09-20T16:38:47.960Z,29.80
2018-09-20T16:41:20.365Z,29.70
2018-09-20T16:43:49.325Z,29.60
2018-09-20T16:46:18.110Z,29.40
2018-09-20T16:48:47.070Z,29.20
2018-09-20T16:51:15.901Z,29.00
2018-09-20T16:53:44.690Z,28.90
2018-09-20T16:56:13.530Z,28.80
2018-09-20T16:58:46.506Z,28.80
2018-09-20T17:01:15.349Z,28.70
2018-09-20T17:03:44.206Z,28.70
2018-09-20T17:06:12.997Z,28.60
2018-09-20T17:08:41.746Z,28.50
2018-09-20T17:11:10.642Z,28.40
2018-09-20T17:13:39.365Z,28.40
2018-09-20T17:16:08.375Z,28.20
2018-09-20T17:18:37.325Z,28.10
2018-09-20T17:21:06.429Z,28.00
2018-09-20T17:23:35.307Z,27.80
2018-09-20T17:26:04.148Z,27.80
2018-09-20T17:28:33.173Z,27.70
2018-09-20T17:31:02.004Z,27.60
2018-09-20T17:33:30.835Z,27.50
2018-09-20T17:35:59.777Z,27.50
2018-09-20T17:38:29.182Z,27.40
2018-09-20T17:41:01.422Z,27.30
2018-09-20T17:43:36.510Z,27.20
2018-09-20T17:46:05.840Z,27.10
2018-09-20T17:48:34.678Z,27.10
2018-09-20T17:51:03.685Z,26.90
2018-09-20T17:53:32.740Z,26.70
2018-09-20T17:56:01.921Z,26.70
2018-09-20T17:58:31.245Z,26.50
2018-09-20T18:01:00.359Z,26.30
2018-09-20T18:03:29.645Z,26.20
2018-09-20T18:05:58.893Z,26.00
2018-09-20T18:08:28.519Z,25.80
2018-09-20T18:10:57.901Z,25.50
2018-09-20T18:13:27.229Z,25.40
2018-09-20T18:15:56.194Z,25.30
2018-09-20T18:18:25.428Z,25.30
2018-09-20T18:20:54.521Z,25.20
2018-09-20T18:23:23.456Z,25.10
2018-09-20T18:25:52.294Z,24.80
2018-09-20T18:28:21.242Z,24.80
2018-09-20T18:30:50.335Z,24.70
2018-09-20T18:33:19.632Z,24.60
2018-09-20T18:35:48.995Z,24.60
2018-09-20T18:38:18.056Z,24.70
2018-09-20T18:40:47.092Z,24.60
2018-09-20T18:43:15.918Z,24.50
2018-09-20T18:45:44.894Z,24.30
2018-09-20T18:48:13.835Z,24.20
2018-09-20T18:50:42.833Z,24.10
2018-09-20T18:53:11.757Z,24.10
2018-09-20T18:55:40.631Z,24.10
2018-09-20T18:58:09.545Z,24.00
2018-09-20T19:00:38.668Z,24.10
2018-09-20T19:03:07.714Z,24.10
2018-09-20T19:05:36.620Z,23.90
2018-09-20T19:08:05.770Z,23.90
2018-09-20T19:10:34.849Z,23.80
2018-09-20T19:13:03.831Z,23.60
2018-09-20T19:15:32.822Z,23.50
2018-09-20T19:18:01.686Z,23.40
2018-09-20T19:20:30.784Z,23.30
2018-09-20T19:23:01.977Z,23.30
2018-09-20T19:25:31.475Z,23.40
2018-09-20T19:28:01.932Z,23.40
2018-09-20T19:30:30.833Z,23.40
2018-09-20T19:32:59.653Z,23.20
2018-09-20T19:35:28.648Z,23.20
2018-09-20T19:37:57.728Z,23.10
2018-09-20T19:40:26.684Z,23.10
2018-09-20T19:42:59.700Z,23.10
2018-09-20T19:45:28.776Z,23.00
2018-09-20T19:47:57.738Z,23.00
2018-09-20T19:50:26.561Z,23.00
2018-09-20T19:52:55.935Z,23.00
2018-09-20T19:55:24.850Z,23.00
2018-09-20T19:57:53.974Z,22.90
2018-09-20T20:00:23.032Z,22.90
2018-09-20T20:02:52.263Z,22.70
2018-09-20T20:05:25.941Z,22.60
2018-09-20T20:08:00.624Z,22.60
2018-09-20T20:10:35.622Z,22.50
2018-09-20T20:13:08.997Z,22.50
2018-09-20T20:15:45.137Z,22.40
2018-09-20T20:18:19.401Z,22.40
2018-09-20T20:20:53.994Z,22.40
2018-09-20T20:23:28.284Z,22.30
2018-09-20T20:26:04.325Z,22.30
2018-09-20T20:28:45.567Z,22.30
2018-09-20T20:31:20.604Z,22.20
2018-09-20T20:33:55.786Z,22.20
2018-09-20T20:36:33.543Z,22.10
2018-09-20T20:39:08.649Z,22.10
2018-09-20T20:41:42.868Z,22.00
2018-09-20T20:44:16.753Z,22.00
2018-09-20T20:46:50.905Z,22.00
2018-09-20T20:49:24.913Z,22.00
2018-09-20T20:51:59.859Z,21.90
2018-09-20T20:54:34.689Z,21.90
2018-09-20T20:57:10.217Z,21.80
2018-09-20T20:59:44.754Z,21.70
2018-09-20T21:02:21.494Z,21.80
2018-09-20T21:04:57.985Z,21.80
2018-09-20T21:07:35.843Z,21.70
2018-09-20T21:10:10.971Z,21.70
2018-09-20T21:12:47.669Z,21.60
2018-09-20T21:15:21.327Z,21.60
2018-09-20T21:17:57.846Z,21.60
2018-09-20T21:20:35.716Z,21.40
2018-09-20T21:23:09.272Z,21.40
2018-09-20T21:25:44.218Z,21.40
2018-09-20T21:28:19.153Z,21.40
2018-09-20T21:30:55.364Z,21.50
2018-09-20T21:33:31.946Z,21.40
2018-09-20T21:36:05.042Z,21.30
2018-09-20T21:38:38.910Z,21.20
2018-09-20T21:41:12.992Z,21.30
2018-09-20T21:43:47.242Z,21.20
2018-09-20T21:46:20.609Z,21.20
2018-09-20T21:48:55.082Z,21.20
2018-09-20T21:51:28.332Z,21.10
2018-09-20T21:54:02.862Z,21.00
2018-09-20T21:56:35.834Z,21.00
2018-09-20T21:59:09.342Z,20.90
2018-09-20T22:01:48.093Z,21.00
2018-09-20T22:04:17.165Z,21.00
2018-09-20T22:06:46.255Z,20.90
2018-09-20T22:09:15.146Z,20.80
2018-09-20T22:11:44.127Z,20.60
2018-09-20T22:14:13.290Z,20.50
2018-09-20T22:16:42.436Z,20.50
2018-09-20T22:19:11.399Z,20.50
2018-09-20T22:21:40.518Z,20.40
2018-09-20T22:24:09.648Z,20.40
2018-09-20T22:26:38.902Z,20.40
2018-09-20T22:29:08.211Z,20.30
2018-09-20T22:31:37.130Z,20.40
2018-09-20T22:34:06.228Z,20.30
2018-09-20T22:36:35.605Z,20.30
2018-09-20T22:39:07.241Z,20.30
2018-09-20T22:41:36.897Z,20.30
2018-09-20T22:44:06.054Z,20.30
2018-09-20T22:46:35.188Z,20.30
2018-09-20T22:49:04.585Z,20.30
2018-09-20T22:51:33.743Z,20.30
2018-09-20T22:54:02.986Z,20.20
2018-09-20T22:56:31.934Z,20.20
2018-09-20T22:59:01.222Z,20.20
2018-09-20T23:01:30.384Z,20.20
2018-09-20T23:03:59.356Z,20.10
2018-09-20T23:06:28.725Z,20.00
2018-09-20T23:08:58.039Z,20.00
2018-09-20T23:11:27.400Z,20.00
2018-09-20T23:13:56.784Z,19.90
2018-09-20T23:16:25.918Z,19.90
2018-09-20T23:18:55.388Z,19.90
2018-09-20T23:21:24.347Z,19.80
2018-09-20T23:23:53.470Z,19.80
2018-09-20T23:26:22.635Z,19.80
2018-09-20T23:28:51.761Z,19.80
2018-09-20T23:31:20.588Z,19.70
2018-09-20T23:33:50.869Z,19.70
2018-09-20T23:36:19.928Z,19.70
2018-09-20T23:38:49.228Z,19.70
2018-09-20T23:41:18.398Z,19.60
2018-09-20T23:43:47.622Z,19.70
2018-09-20T23:46:16.745Z,19.60
2018-09-20T23:48:46.300Z,19.50
2018-09-20T23:51:15.676Z,19.50
2018-09-20T23:53:44.699Z,19.40
2018-09-20T23:56:13.835Z,19.40
2018-09-20T23:58:43.396Z,19.40
